DLH6DE EDDH-EDDP
Flight info
| Callsign | DLH6DE |
|---|---|
| Flight time | 0h 38m |
| Altitude | 23000 |
| Route | AMLUH2G/33 AMLUH M852 DENIX Z113 SAS Z88 UPDAT T236 ADMOS T959 KOJEC KOJEC1R |
| Aircraft | A321/M-SDE3FGHIRWY/LB1 |
Departure
| Time | 2026-05-07 18:24 |
|---|---|
| Airport | Hamburg Helmut Schmidt Airport (EDDH) |
Arrival
| Time | 2026-05-07 19:02 |
|---|---|
| Airport | Leipzig/Halle Airport (EDDP) |
| Time | Latitude | Longitude | Altitude | Speed | Heading |
|---|---|---|---|---|---|
| 2026-05-07 17:39 | 53.63412 | 10.00336 | 50 ft | 0 kts | 86° |
| 2026-05-07 18:08 | 53.63412 | 10.00328 | 51 ft | 4 kts | 85° |
| 2026-05-07 18:09 | 53.63409 | 10.00283 | 51 ft | 4 kts | 82° |
| 2026-05-07 18:09 | 53.63405 | 10.00238 | 50 ft | 4 kts | 81° |
| 2026-05-07 18:09 | 53.63402 | 10.00193 | 48 ft | 4 kts | 94° |
| 2026-05-07 18:09 | 53.63407 | 10.00161 | 49 ft | 3 kts | 166° |
| 2026-05-07 18:10 | 53.63410 | 10.00159 | 49 ft | 0 kts | 176° |
| 2026-05-07 18:13 | 53.63395 | 10.00161 | 48 ft | 8 kts | 176° |
| 2026-05-07 18:13 | 53.63339 | 10.00167 | 51 ft | 8 kts | 177° |
| 2026-05-07 18:13 | 53.63291 | 10.00171 | 51 ft | 6 kts | 176° |
| 2026-05-07 18:14 | 53.63231 | 10.00177 | 49 ft | 14 kts | 176° |
| 2026-05-07 18:14 | 53.63133 | 10.00189 | 51 ft | 13 kts | 176° |
| 2026-05-07 18:14 | 53.63050 | 10.00167 | 51 ft | 12 kts | 212° |
| 2026-05-07 18:14 | 53.63002 | 10.00115 | 51 ft | 0 kts | 212° |
| 2026-05-07 18:15 | 53.62995 | 10.00107 | 49 ft | 1 kts | 212° |
| 2026-05-07 18:15 | 53.62989 | 10.00109 | 49 ft | 3 kts | 174° |
| 2026-05-07 18:15 | 53.62953 | 10.00128 | 51 ft | 4 kts | 169° |
| 2026-05-07 18:16 | 53.62935 | 10.00118 | 51 ft | 2 kts | 204° |
| 2026-05-07 18:16 | 53.62933 | 10.00117 | 51 ft | 0 kts | 204° |
| 2026-05-07 18:16 | 53.62929 | 10.00114 | 51 ft | 4 kts | 207° |
| 2026-05-07 18:16 | 53.62902 | 10.00087 | 49 ft | 4 kts | 211° |
| 2026-05-07 18:17 | 53.62883 | 10.00067 | 51 ft | 3 kts | 214° |
| 2026-05-07 18:17 | 53.62875 | 10.00052 | 50 ft | 1 kts | 231° |
| 2026-05-07 18:17 | 53.62870 | 10.00040 | 51 ft | 0 kts | 238° |
| 2026-05-07 18:19 | 53.62869 | 10.00035 | 51 ft | 4 kts | 238° |
| 2026-05-07 18:19 | 53.62847 | 9.99971 | 50 ft | 6 kts | 242° |
| 2026-05-07 18:19 | 53.62839 | 9.99946 | 52 ft | 0 kts | 242° |
| 2026-05-07 18:22 | 53.62835 | 9.99933 | 49 ft | 7 kts | 242° |
| 2026-05-07 18:23 | 53.62809 | 9.99850 | 53 ft | 7 kts | 243° |
| 2026-05-07 18:23 | 53.62823 | 9.99779 | 52 ft | 6 kts | 317° |
| 2026-05-07 18:23 | 53.62857 | 9.99749 | 53 ft | 6 kts | 333° |
| 2026-05-07 18:23 | 53.62999 | 9.99629 | 51 ft | 55 kts | 333° |
| 2026-05-07 18:24 | 53.63539 | 9.99163 | 51 ft | 117 kts | 333° |
| 2026-05-07 18:24 | 53.64422 | 9.98404 | 68 ft | 163 kts | 333° |
| 2026-05-07 18:24 | 53.65427 | 9.97545 | 640 ft | 160 kts | 336° |
| 2026-05-07 18:24 | 53.66421 | 9.96699 | 1312 ft | 162 kts | 336° |
| 2026-05-07 18:25 | 53.67476 | 9.95760 | 1668 ft | 181 kts | 335° |
| 2026-05-07 18:25 | 53.68655 | 9.94785 | 2046 ft | 196 kts | 345° |
| 2026-05-07 18:25 | 53.70037 | 9.94623 | 2448 ft | 206 kts | 8° |
| 2026-05-07 18:25 | 53.71520 | 9.94823 | 2935 ft | 221 kts | 6° |
| 2026-05-07 18:26 | 53.72974 | 9.95463 | 3703 ft | 216 kts | 36° |
| 2026-05-07 18:26 | 53.73890 | 9.97407 | 4415 ft | 215 kts | 70° |
| 2026-05-07 18:26 | 53.74282 | 9.99879 | 5133 ft | 219 kts | 79° |
| 2026-05-07 18:26 | 53.74460 | 10.02414 | 6010 ft | 216 kts | 92° |
| 2026-05-07 18:27 | 53.74030 | 10.04867 | 6592 ft | 229 kts | 118° |
| 2026-05-07 18:27 | 53.73069 | 10.07223 | 6815 ft | 257 kts | 123° |
| 2026-05-07 18:27 | 53.72046 | 10.09814 | 7341 ft | 270 kts | 119° |
| 2026-05-07 18:27 | 53.71102 | 10.12614 | 8051 ft | 277 kts | 116° |
| 2026-05-07 18:28 | 53.70190 | 10.15494 | 8889 ft | 280 kts | 116° |
| 2026-05-07 18:28 | 53.69140 | 10.18276 | 9709 ft | 284 kts | 131° |
| 2026-05-07 18:28 | 53.67631 | 10.20459 | 10402 ft | 292 kts | 147° |
| 2026-05-07 18:28 | 53.65705 | 10.21917 | 10627 ft | 316 kts | 164° |
| 2026-05-07 18:29 | 53.63499 | 10.22879 | 10810 ft | 339 kts | 165° |
| 2026-05-07 18:29 | 53.61143 | 10.23915 | 11074 ft | 357 kts | 165° |
| 2026-05-07 18:29 | 53.58724 | 10.25000 | 11667 ft | 363 kts | 165° |
| 2026-05-07 18:29 | 53.56270 | 10.26116 | 12341 ft | 367 kts | 165° |
| 2026-05-07 18:30 | 53.53795 | 10.27253 | 13023 ft | 371 kts | 165° |
| 2026-05-07 18:30 | 53.51296 | 10.28408 | 13685 ft | 375 kts | 165° |
| 2026-05-07 18:30 | 53.48768 | 10.29572 | 14302 ft | 378 kts | 165° |
| 2026-05-07 18:30 | 53.46212 | 10.30743 | 14896 ft | 381 kts | 165° |
| 2026-05-07 18:31 | 53.43643 | 10.31913 | 15492 ft | 384 kts | 165° |
| 2026-05-07 18:31 | 53.41052 | 10.33091 | 16082 ft | 388 kts | 165° |
| 2026-05-07 18:31 | 53.38433 | 10.34272 | 16645 ft | 391 kts | 166° |
| 2026-05-07 18:31 | 53.35792 | 10.35457 | 17215 ft | 395 kts | 166° |
| 2026-05-07 18:32 | 53.33124 | 10.36651 | 17799 ft | 398 kts | 166° |
| 2026-05-07 18:32 | 53.30433 | 10.37853 | 18382 ft | 402 kts | 166° |
| 2026-05-07 18:32 | 53.27719 | 10.39063 | 18868 ft | 405 kts | 166° |
| 2026-05-07 18:32 | 53.25022 | 10.40269 | 19359 ft | 408 kts | 166° |
| 2026-05-07 18:33 | 53.22274 | 10.41499 | 19853 ft | 410 kts | 166° |
| 2026-05-07 18:33 | 53.19507 | 10.42738 | 20341 ft | 413 kts | 166° |
| 2026-05-07 18:33 | 53.16722 | 10.43982 | 20807 ft | 416 kts | 166° |
| 2026-05-07 18:33 | 53.13900 | 10.45085 | 21249 ft | 418 kts | 172° |
| 2026-05-07 18:34 | 53.11000 | 10.45477 | 21700 ft | 419 kts | 181° |
| 2026-05-07 18:34 | 53.08089 | 10.45238 | 22137 ft | 421 kts | 185° |
| 2026-05-07 18:34 | 53.05155 | 10.44933 | 22567 ft | 423 kts | 185° |
| 2026-05-07 18:34 | 53.02212 | 10.44624 | 22976 ft | 426 kts | 185° |
| 2026-05-07 18:35 | 52.99245 | 10.44322 | 23101 ft | 430 kts | 185° |
| 2026-05-07 18:35 | 52.96224 | 10.44022 | 23111 ft | 440 kts | 185° |
| 2026-05-07 18:35 | 52.93139 | 10.43719 | 23109 ft | 447 kts | 185° |
| 2026-05-07 18:35 | 52.90015 | 10.43416 | 23109 ft | 450 kts | 185° |
| 2026-05-07 18:36 | 52.86893 | 10.43115 | 23112 ft | 450 kts | 185° |
| 2026-05-07 18:36 | 52.83766 | 10.42813 | 23111 ft | 450 kts | 185° |
| 2026-05-07 18:36 | 52.80638 | 10.42509 | 23111 ft | 450 kts | 185° |
| 2026-05-07 18:36 | 52.77511 | 10.42203 | 23110 ft | 450 kts | 185° |
| 2026-05-07 18:37 | 52.74392 | 10.41762 | 23108 ft | 449 kts | 190° |
| 2026-05-07 18:37 | 52.71357 | 10.40587 | 23112 ft | 448 kts | 199° |
| 2026-05-07 18:37 | 52.68483 | 10.38635 | 23109 ft | 446 kts | 208° |
| 2026-05-07 18:37 | 52.65845 | 10.35971 | 23106 ft | 445 kts | 217° |
| 2026-05-07 18:38 | 52.63335 | 10.32996 | 23106 ft | 445 kts | 217° |
| 2026-05-07 18:38 | 52.60820 | 10.30031 | 23104 ft | 445 kts | 216° |
| 2026-05-07 18:38 | 52.58330 | 10.27113 | 23105 ft | 445 kts | 216° |
| 2026-05-07 18:38 | 52.55807 | 10.24162 | 23094 ft | 445 kts | 216° |
| 2026-05-07 18:39 | 52.53285 | 10.21210 | 23099 ft | 445 kts | 216° |
| 2026-05-07 18:39 | 52.50766 | 10.18254 | 23097 ft | 445 kts | 216° |
| 2026-05-07 18:39 | 52.48240 | 10.15291 | 23100 ft | 445 kts | 216° |
| 2026-05-07 18:39 | 52.45717 | 10.12342 | 23101 ft | 446 kts | 216° |
| 2026-05-07 18:40 | 52.43192 | 10.09396 | 23102 ft | 446 kts | 216° |
| 2026-05-07 18:40 | 52.40664 | 10.06453 | 23104 ft | 446 kts | 216° |
| 2026-05-07 18:40 | 52.38136 | 10.03519 | 23104 ft | 446 kts | 216° |
| 2026-05-07 18:40 | 52.35602 | 10.00586 | 23104 ft | 446 kts | 216° |
| 2026-05-07 18:41 | 52.33068 | 9.97661 | 23099 ft | 446 kts | 216° |
| 2026-05-07 18:41 | 52.30367 | 9.95149 | 23101 ft | 448 kts | 204° |
| 2026-05-07 18:41 | 52.27391 | 9.93648 | 23098 ft | 450 kts | 191° |
| 2026-05-07 18:41 | 52.24272 | 9.93243 | 23106 ft | 451 kts | 179° |
| 2026-05-07 18:42 | 52.21165 | 9.93959 | 23109 ft | 453 kts | 166° |
| 2026-05-07 18:42 | 52.18213 | 9.95768 | 23107 ft | 455 kts | 154° |
| 2026-05-07 18:42 | 52.15513 | 9.98452 | 23108 ft | 455 kts | 148° |
| 2026-05-07 18:42 | 52.12848 | 10.01254 | 23103 ft | 456 kts | 148° |
| 2026-05-07 18:43 | 52.10184 | 10.04041 | 23106 ft | 456 kts | 148° |
| 2026-05-07 18:43 | 52.07517 | 10.06821 | 23092 ft | 456 kts | 148° |
| 2026-05-07 18:43 | 52.04844 | 10.09597 | 23099 ft | 455 kts | 148° |
| 2026-05-07 18:43 | 52.02171 | 10.12363 | 23098 ft | 456 kts | 148° |
| 2026-05-07 18:44 | 51.99531 | 10.15088 | 23101 ft | 456 kts | 148° |
| 2026-05-07 18:44 | 51.96861 | 10.17866 | 23101 ft | 456 kts | 146° |
| 2026-05-07 18:44 | 51.94382 | 10.21085 | 23093 ft | 457 kts | 137° |
| 2026-05-07 18:44 | 51.92240 | 10.24897 | 23097 ft | 458 kts | 128° |
| 2026-05-07 18:45 | 51.90492 | 10.29218 | 23018 ft | 462 kts | 119° |
| 2026-05-07 18:45 | 51.88982 | 10.33829 | 22504 ft | 463 kts | 118° |
| 2026-05-07 18:45 | 51.87477 | 10.38412 | 21937 ft | 460 kts | 118° |
| 2026-05-07 18:45 | 51.85978 | 10.42958 | 21387 ft | 456 kts | 118° |
| 2026-05-07 18:46 | 51.84488 | 10.47462 | 20842 ft | 452 kts | 118° |
| 2026-05-07 18:46 | 51.83005 | 10.51922 | 20313 ft | 448 kts | 118° |
| 2026-05-07 18:46 | 51.81531 | 10.56340 | 19788 ft | 444 kts | 118° |
| 2026-05-07 18:46 | 51.80078 | 10.60693 | 19281 ft | 436 kts | 118° |
| 2026-05-07 18:47 | 51.78652 | 10.64961 | 18764 ft | 429 kts | 118° |
| 2026-05-07 18:47 | 51.77244 | 10.69170 | 18254 ft | 422 kts | 118° |
| 2026-05-07 18:47 | 51.75857 | 10.73311 | 17683 ft | 417 kts | 118° |
| 2026-05-07 18:47 | 51.74489 | 10.77406 | 17132 ft | 412 kts | 119° |
| 2026-05-07 18:48 | 51.73157 | 10.81402 | 16575 ft | 395 kts | 118° |
| 2026-05-07 18:48 | 51.72003 | 10.85309 | 16063 ft | 377 kts | 111° |
| 2026-05-07 18:48 | 51.71074 | 10.89166 | 15558 ft | 362 kts | 111° |
| 2026-05-07 18:48 | 51.70170 | 10.92904 | 15069 ft | 356 kts | 111° |
| 2026-05-07 18:49 | 51.69273 | 10.96586 | 14571 ft | 349 kts | 111° |
| 2026-05-07 18:49 | 51.68381 | 11.00222 | 14088 ft | 349 kts | 111° |
| 2026-05-07 18:49 | 51.67500 | 11.03812 | 13576 ft | 342 kts | 111° |
| 2026-05-07 18:49 | 51.66632 | 11.07357 | 13167 ft | 339 kts | 111° |
| 2026-05-07 18:50 | 51.65751 | 11.10878 | 13091 ft | 338 kts | 113° |
| 2026-05-07 18:50 | 51.64776 | 11.14330 | 13112 ft | 338 kts | 114° |
| 2026-05-07 18:50 | 51.63786 | 11.17767 | 13116 ft | 339 kts | 114° |
| 2026-05-07 18:50 | 51.62775 | 11.21176 | 13110 ft | 332 kts | 114° |
| 2026-05-07 18:51 | 51.61890 | 11.24503 | 13111 ft | 316 kts | 107° |
| 2026-05-07 18:51 | 51.61260 | 11.27825 | 12863 ft | 305 kts | 105° |
| 2026-05-07 18:51 | 51.60678 | 11.31079 | 12576 ft | 301 kts | 104° |
| 2026-05-07 18:51 | 51.60102 | 11.34309 | 12277 ft | 299 kts | 104° |
| 2026-05-07 18:52 | 51.59526 | 11.37520 | 11996 ft | 299 kts | 105° |
| 2026-05-07 18:52 | 51.58953 | 11.40724 | 11728 ft | 296 kts | 104° |
| 2026-05-07 18:52 | 51.58434 | 11.43917 | 11448 ft | 294 kts | 100° |
| 2026-05-07 18:52 | 51.58028 | 11.47128 | 11159 ft | 292 kts | 99° |
| 2026-05-07 18:53 | 51.57638 | 11.50324 | 10859 ft | 291 kts | 99° |
| 2026-05-07 18:53 | 51.57252 | 11.53503 | 10564 ft | 289 kts | 100° |
| 2026-05-07 18:53 | 51.56871 | 11.56667 | 10271 ft | 288 kts | 99° |
| 2026-05-07 18:53 | 51.56280 | 11.59718 | 10108 ft | 288 kts | 119° |
| 2026-05-07 18:54 | 51.54952 | 11.62117 | 9864 ft | 290 kts | 144° |
| 2026-05-07 18:54 | 51.53126 | 11.63362 | 9421 ft | 294 kts | 169° |
| 2026-05-07 18:54 | 51.51080 | 11.63776 | 8838 ft | 299 kts | 174° |
| 2026-05-07 18:54 | 51.48982 | 11.64062 | 8189 ft | 305 kts | 174° |
| 2026-05-07 18:55 | 51.46844 | 11.64334 | 7544 ft | 311 kts | 175° |
| 2026-05-07 18:55 | 51.44680 | 11.64624 | 7007 ft | 312 kts | 175° |
| 2026-05-07 18:55 | 51.42515 | 11.64953 | 6488 ft | 312 kts | 171° |
| 2026-05-07 18:55 | 51.40481 | 11.66081 | 5931 ft | 311 kts | 147° |
| 2026-05-07 18:56 | 51.38937 | 11.68431 | 5393 ft | 307 kts | 122° |
| 2026-05-07 18:56 | 51.37933 | 11.71350 | 4887 ft | 291 kts | 115° |
| 2026-05-07 18:56 | 51.37126 | 11.74211 | 4487 ft | 273 kts | 104° |
| 2026-05-07 18:56 | 51.37030 | 11.77121 | 4100 ft | 259 kts | 80° |
| 2026-05-07 18:57 | 51.37410 | 11.79930 | 3709 ft | 258 kts | 75° |
| 2026-05-07 18:57 | 51.37838 | 11.82648 | 3394 ft | 244 kts | 75° |
| 2026-05-07 18:57 | 51.38242 | 11.85221 | 3100 ft | 233 kts | 75° |
| 2026-05-07 18:57 | 51.38627 | 11.87694 | 3024 ft | 227 kts | 75° |
| 2026-05-07 18:58 | 51.39010 | 11.90135 | 3030 ft | 224 kts | 75° |
| 2026-05-07 18:58 | 51.39390 | 11.92555 | 3030 ft | 223 kts | 75° |
| 2026-05-07 18:58 | 51.39763 | 11.94953 | 3033 ft | 217 kts | 75° |
| 2026-05-07 18:58 | 51.40116 | 11.97214 | 3028 ft | 201 kts | 74° |
| 2026-05-07 18:59 | 51.40424 | 11.99316 | 3007 ft | 187 kts | 82° |
| 2026-05-07 18:59 | 51.40337 | 12.01329 | 2876 ft | 178 kts | 94° |
| 2026-05-07 18:59 | 51.40348 | 12.03265 | 2626 ft | 173 kts | 85° |
| 2026-05-07 18:59 | 51.40429 | 12.05164 | 2390 ft | 170 kts | 84° |
| 2026-05-07 19:00 | 51.40516 | 12.07027 | 2166 ft | 162 kts | 83° |
| 2026-05-07 19:00 | 51.40598 | 12.08742 | 1967 ft | 149 kts | 83° |
| 2026-05-07 19:00 | 51.40676 | 12.10357 | 1762 ft | 144 kts | 83° |
| 2026-05-07 19:00 | 51.40752 | 12.11940 | 1563 ft | 142 kts | 84° |
| 2026-05-07 19:01 | 51.40826 | 12.13480 | 1362 ft | 140 kts | 84° |
| 2026-05-07 19:01 | 51.40894 | 12.15022 | 1159 ft | 139 kts | 84° |
| 2026-05-07 19:01 | 51.40973 | 12.16593 | 972 ft | 140 kts | 83° |
| 2026-05-07 19:01 | 51.41049 | 12.18152 | 808 ft | 140 kts | 84° |
| 2026-05-07 19:02 | 51.41121 | 12.19684 | 617 ft | 139 kts | 83° |
| 2026-05-07 19:02 | 51.41186 | 12.21202 | 452 ft | 129 kts | 84° |
| 2026-05-07 19:02 | 51.41254 | 12.22406 | 457 ft | 85 kts | 85° |
| 2026-05-07 19:02 | 51.41286 | 12.23107 | 464 ft | 35 kts | 87° |
| 2026-05-07 19:03 | 51.41335 | 12.23246 | 465 ft | 13 kts | 24° |
| 2026-05-07 19:03 | 51.41433 | 12.23242 | 461 ft | 16 kts | 353° |
| 2026-05-07 19:03 | 51.41531 | 12.23230 | 461 ft | 4 kts | 357° |
| 2026-05-07 19:04 | 51.41548 | 12.23229 | 462 ft | 7 kts | 357° |
| 2026-05-07 19:05 | 51.41602 | 12.23198 | 464 ft | 8 kts | 309° |
| 2026-05-07 19:05 | 51.41628 | 12.23061 | 464 ft | 16 kts | 284° |
| 2026-05-07 19:05 | 51.41657 | 12.22892 | 464 ft | 16 kts | 286° |
| 2026-05-07 19:05 | 51.41688 | 12.22721 | 463 ft | 17 kts | 285° |
| 2026-05-07 19:06 | 51.41722 | 12.22520 | 456 ft | 21 kts | 285° |
| 2026-05-07 19:06 | 51.41797 | 12.22071 | 447 ft | 12 kts | 282° |
| 2026-05-07 19:06 | 51.41822 | 12.21934 | 444 ft | 14 kts | 286° |
| 2026-05-07 19:07 | 51.41847 | 12.21789 | 442 ft | 8 kts | 285° |
| 2026-05-07 19:07 | 51.41874 | 12.21763 | 441 ft | 4 kts | 8° |
| 2026-05-07 19:07 | 51.41902 | 12.21774 | 432 ft | 5 kts | 14° |
| 2026-05-07 19:07 | 51.41933 | 12.21789 | 438 ft | 1 kts | 16° |
| 2026-05-07 19:08 | 51.41934 | 12.21789 | 438 ft | 0 kts | 16° |
| 2026-05-07 19:08 | 51.41938 | 12.21791 | 438 ft | 2 kts | 16° |
| 2026-05-07 19:08 | 51.41942 | 12.21793 | 438 ft | 0 kts | 16° |